sensor_id;sensor_type;location;lat;lon;timestamp;temperature;humidity
1602;DHT22;794;48.592;9.634;2023-08-24T00:00:38;17.50;1.00
1602;DHT22;794;48.592;9.634;2023-08-24T00:03:05;17.20;1.00
1602;DHT22;794;48.592;9.634;2023-08-24T00:05:36;17.10;1.00
1602;DHT22;794;48.592;9.634;2023-08-24T00:08:06;17.50;1.00
1602;DHT22;794;48.592;9.634;2023-08-24T00:10:36;17.20;1.00
1602;DHT22;794;48.592;9.634;2023-08-24T00:13:03;17.30;1.00
1602;DHT22;794;48.592;9.634;2023-08-24T00:15:30;17.20;1.00
1602;DHT22;794;48.592;9.634;2023-08-24T00:17:57;17.00;1.00
1602;DHT22;794;48.592;9.634;2023-08-24T00:20:24;17.10;1.00
1602;DHT22;794;48.592;9.634;2023-08-24T00:22:52;17.10;1.00
1602;DHT22;794;48.592;9.634;2023-08-24T00:25:19;17.10;1.00
1602;DHT22;794;48.592;9.634;2023-08-24T00:27:51;17.20;1.00
1602;DHT22;794;48.592;9.634;2023-08-24T00:30:21;17.10;1.00
1602;DHT22;794;48.592;9.634;2023-08-24T00:32:51;15.60;1.00
1602;DHT22;794;48.592;9.634;2023-08-24T00:35:21;17.20;1.00
1602;DHT22;794;48.592;9.634;2023-08-24T00:37:51;17.60;1.00
1602;DHT22;794;48.592;9.634;2023-08-24T00:40:21;16.40;1.00
1602;DHT22;794;48.592;9.634;2023-08-24T00:42:49;16.90;1.00
1602;DHT22;794;48.592;9.634;2023-08-24T00:45:17;16.90;1.00
1602;DHT22;794;48.592;9.634;2023-08-24T00:47:47;16.90;1.00
1602;DHT22;794;48.592;9.634;2023-08-24T00:50:16;17.10;1.00
1602;DHT22;794;48.592;9.634;2023-08-24T00:52:47;16.70;1.00
1602;DHT22;794;48.592;9.634;2023-08-24T00:55:22;16.80;1.00
1602;DHT22;794;48.592;9.634;2023-08-24T00:57:56;16.80;1.00
1602;DHT22;794;48.592;9.634;2023-08-24T01:00:26;16.70;1.00
1602;DHT22;794;48.592;9.634;2023-08-24T01:02:53;16.90;1.00
1602;DHT22;794;48.592;9.634;2023-08-24T01:05:20;16.30;1.00
1602;DHT22;794;48.592;9.634;2023-08-24T01:07:47;16.80;1.00
1602;DHT22;794;48.592;9.634;2023-08-24T01:10:14;16.80;1.00
1602;DHT22;794;48.592;9.634;2023-08-24T01:12:59;16.60;1.00
1602;DHT22;794;48.592;9.634;2023-08-24T01:15:35;16.80;1.00
1602;DHT22;794;48.592;9.634;2023-08-24T01:18:05;16.70;1.00
1602;DHT22;794;48.592;9.634;2023-08-24T01:20:34;16.70;1.00
1602;DHT22;794;48.592;9.634;2023-08-24T01:23:14;16.80;1.00
1602;DHT22;794;48.592;9.634;2023-08-24T01:25:51;16.70;1.00
1602;DHT22;794;48.592;9.634;2023-08-24T01:28:25;16.70;1.00
1602;DHT22;794;48.592;9.634;2023-08-24T01:30:53;16.70;1.00
1602;DHT22;794;48.592;9.634;2023-08-24T01:33:21;17.00;1.00
1602;DHT22;794;48.592;9.634;2023-08-24T01:35:48;16.60;1.00
1602;DHT22;794;48.592;9.634;2023-08-24T01:38:15;16.80;1.00
1602;DHT22;794;48.592;9.634;2023-08-24T01:40:49;16.60;1.00
1602;DHT22;794;48.592;9.634;2023-08-24T01:43:29;17.00;1.00
1602;DHT22;794;48.592;9.634;2023-08-24T01:46:00;14.80;1.00
1602;DHT22;794;48.592;9.634;2023-08-24T01:48:32;16.80;1.00
1602;DHT22;794;48.592;9.634;2023-08-24T01:51:01;16.90;1.00
1602;DHT22;794;48.592;9.634;2023-08-24T01:53:31;16.70;1.00
1602;DHT22;794;48.592;9.634;2023-08-24T01:56:01;16.60;1.00
1602;DHT22;794;48.592;9.634;2023-08-24T01:58:43;16.60;1.00
1602;DHT22;794;48.592;9.634;2023-08-24T02:01:10;16.90;1.00
1602;DHT22;794;48.592;9.634;2023-08-24T02:03:40;16.60;1.00
1602;DHT22;794;48.592;9.634;2023-08-24T02:06:08;16.70;1.00
1602;DHT22;794;48.592;9.634;2023-08-24T02:08:35;16.80;1.00
1602;DHT22;794;48.592;9.634;2023-08-24T02:11:02;16.80;1.00
1602;DHT22;794;48.592;9.634;2023-08-24T02:13:29;16.90;1.00
1602;DHT22;794;48.592;9.634;2023-08-24T02:16:08;16.50;1.00
1602;DHT22;794;48.592;9.634;2023-08-24T02:18:37;16.50;1.00
1602;DHT22;794;48.592;9.634;2023-08-24T02:21:10;15.90;1.00
1602;DHT22;794;48.592;9.634;2023-08-24T02:23:37;16.80;1.00
1602;DHT22;794;48.592;9.634;2023-08-24T02:26:07;16.50;1.00
1602;DHT22;794;48.592;9.634;2023-08-24T02:28:36;16.50;1.00
1602;DHT22;794;48.592;9.634;2023-08-24T02:31:05;16.50;1.00
1602;DHT22;794;48.592;9.634;2023-08-24T02:33:32;16.60;1.00
1602;DHT22;794;48.592;9.634;2023-08-24T02:36:02;16.50;1.00
1602;DHT22;794;48.592;9.634;2023-08-24T02:38:31;16.50;1.00
1602;DHT22;794;48.592;9.634;2023-08-24T02:41:02;16.50;1.00
1602;DHT22;794;48.592;9.634;2023-08-24T02:43:31;15.20;1.00
1602;DHT22;794;48.592;9.634;2023-08-24T02:46:02;16.50;1.00
1602;DHT22;794;48.592;9.634;2023-08-24T02:48:32;16.50;1.00
1602;DHT22;794;48.592;9.634;2023-08-24T02:51:03;16.40;1.00
1602;DHT22;794;48.592;9.634;2023-08-24T02:53:36;16.70;1.00
1602;DHT22;794;48.592;9.634;2023-08-24T02:56:03;17.80;1.00
1602;DHT22;794;48.592;9.634;2023-08-24T02:58:31;16.40;1.00
1602;DHT22;794;48.592;9.634;2023-08-24T03:00:58;16.40;1.00
1602;DHT22;794;48.592;9.634;2023-08-24T03:03:28;16.40;1.00
1602;DHT22;794;48.592;9.634;2023-08-24T03:05:58;16.30;1.00
1602;DHT22;794;48.592;9.634;2023-08-24T03:08:25;16.30;1.00
1602;DHT22;794;48.592;9.634;2023-08-24T03:10:53;16.30;1.00
1602;DHT22;794;48.592;9.634;2023-08-24T03:13:20;16.40;1.00
1602;DHT22;794;48.592;9.634;2023-08-24T03:15:47;16.50;1.00
1602;DHT22;794;48.592;9.634;2023-08-24T03:18:16;16.30;1.00
1602;DHT22;794;48.592;9.634;2023-08-24T03:20:48;16.60;1.00
1602;DHT22;794;48.592;9.634;2023-08-24T03:23:18;16.30;1.00
1602;DHT22;794;48.592;9.634;2023-08-24T03:25:45;16.30;1.00
1602;DHT22;794;48.592;9.634;2023-08-24T03:28:12;16.30;1.00
1602;DHT22;794;48.592;9.634;2023-08-24T03:30:46;16.40;1.00
1602;DHT22;794;48.592;9.634;2023-08-24T03:33:14;16.30;1.00
1602;DHT22;794;48.592;9.634;2023-08-24T03:35:42;16.40;1.00
1602;DHT22;794;48.592;9.634;2023-08-24T03:38:11;16.30;1.00
1602;DHT22;794;48.592;9.634;2023-08-24T03:40:40;16.40;1.00
1602;DHT22;794;48.592;9.634;2023-08-24T03:43:07;16.40;1.00
1602;DHT22;794;48.592;9.634;2023-08-24T03:45:35;16.40;1.00
1602;DHT22;794;48.592;9.634;2023-08-24T03:48:02;16.30;1.00
1602;DHT22;794;48.592;9.634;2023-08-24T03:50:33;16.40;1.00
1602;DHT22;794;48.592;9.634;2023-08-24T03:53:01;16.50;1.00
1602;DHT22;794;48.592;9.634;2023-08-24T03:55:28;16.60;1.00
1602;DHT22;794;48.592;9.634;2023-08-24T03:57:56;16.30;1.00
1602;DHT22;794;48.592;9.634;2023-08-24T04:00:23;16.80;1.00
1602;DHT22;794;48.592;9.634;2023-08-24T04:02:51;16.30;1.00
1602;DHT22;794;48.592;9.634;2023-08-24T04:05:22;16.00;1.00
1602;DHT22;794;48.592;9.634;2023-08-24T04:07:50;16.40;1.00
1602;DHT22;794;48.592;9.634;2023-08-24T04:10:18;16.40;1.00
1602;DHT22;794;48.592;9.634;2023-08-24T04:12:45;16.40;1.00
1602;DHT22;794;48.592;9.634;2023-08-24T04:15:16;16.50;1.00
1602;DHT22;794;48.592;9.634;2023-08-24T04:17:43;16.80;1.00
1602;DHT22;794;48.592;9.634;2023-08-24T04:20:13;16.40;1.00
1602;DHT22;794;48.592;9.634;2023-08-24T04:22:40;16.40;1.00
1602;DHT22;794;48.592;9.634;2023-08-24T04:25:09;16.40;1.00
1602;DHT22;794;48.592;9.634;2023-08-24T04:27:37;16.70;1.00
1602;DHT22;794;48.592;9.634;2023-08-24T04:30:08;16.30;1.00
1602;DHT22;794;48.592;9.634;2023-08-24T04:32:40;16.30;1.00
1602;DHT22;794;48.592;9.634;2023-08-24T04:35:07;16.40;1.00
1602;DHT22;794;48.592;9.634;2023-08-24T04:37:35;16.30;1.00
1602;DHT22;794;48.592;9.634;2023-08-24T04:40:09;16.40;1.00
1602;DHT22;794;48.592;9.634;2023-08-24T04:42:53;16.80;1.00
1602;DHT22;794;48.592;9.634;2023-08-24T04:45:20;16.70;1.00
1602;DHT22;794;48.592;9.634;2023-08-24T04:47:48;16.90;1.00
1602;DHT22;794;48.592;9.634;2023-08-24T04:50:15;16.80;1.00
1602;DHT22;794;48.592;9.634;2023-08-24T04:52:45;16.80;1.00
1602;DHT22;794;48.592;9.634;2023-08-24T04:55:12;16.90;1.00
1602;DHT22;794;48.592;9.634;2023-08-24T04:57:41;17.00;1.00
1602;DHT22;794;48.592;9.634;2023-08-24T05:00:11;17.20;1.00
1602;DHT22;794;48.592;9.634;2023-08-24T05:09:44;17.60;1.00
1602;DHT22;794;48.592;9.634;2023-08-24T05:12:20;17.70;1.00
1602;DHT22;794;48.592;9.634;2023-08-24T05:18:44;17.90;1.00
1602;DHT22;794;48.592;9.634;2023-08-24T05:21:11;18.00;1.00
1602;DHT22;794;48.592;9.634;2023-08-24T05:23:40;18.00;1.00
1602;DHT22;794;48.592;9.634;2023-08-24T05:26:11;18.20;1.00
1602;DHT22;794;48.592;9.634;2023-08-24T05:28:40;18.10;1.00
1602;DHT22;794;48.592;9.634;2023-08-24T05:31:07;18.50;1.00
1602;DHT22;794;48.592;9.634;2023-08-24T05:33:37;18.60;1.00
1602;DHT22;794;48.592;9.634;2023-08-24T05:36:05;18.70;1.00
1602;DHT22;794;48.592;9.634;2023-08-24T05:38:32;19.00;1.00
1602;DHT22;794;48.592;9.634;2023-08-24T05:41:02;18.70;1.00
1602;DHT22;794;48.592;9.634;2023-08-24T05:43:34;18.80;1.00
1602;DHT22;794;48.592;9.634;2023-08-24T05:46:01;18.90;1.00
1602;DHT22;794;48.592;9.634;2023-08-24T05:48:31;19.00;1.00
1602;DHT22;794;48.592;9.634;2023-08-24T05:50:58;19.10;1.00
1602;DHT22;794;48.592;9.634;2023-08-24T05:53:25;19.30;1.00
1602;DHT22;794;48.592;9.634;2023-08-24T05:55:57;19.50;1.00
1602;DHT22;794;48.592;9.634;2023-08-24T05:58:27;19.70;1.00
1602;DHT22;794;48.592;9.634;2023-08-24T06:01:02;19.90;1.00
1602;DHT22;794;48.592;9.634;2023-08-24T06:03:31;20.20;1.00
1602;DHT22;794;48.592;9.634;2023-08-24T06:06:05;20.80;1.00
1602;DHT22;794;48.592;9.634;2023-08-24T06:08:36;21.20;1.00
1602;DHT22;794;48.592;9.634;2023-08-24T06:11:02;21.70;1.00
1602;DHT22;794;48.592;9.634;2023-08-24T06:13:32;22.10;1.00
1602;DHT22;794;48.592;9.634;2023-08-24T06:16:02;22.20;1.00
1602;DHT22;794;48.592;9.634;2023-08-24T06:18:31;22.30;1.00
1602;DHT22;794;48.592;9.634;2023-08-24T06:20:57;22.20;1.00
1602;DHT22;794;48.592;9.634;2023-08-24T06:23:24;22.20;1.00
1602;DHT22;794;48.592;9.634;2023-08-24T06:25:51;22.40;1.00
1602;DHT22;794;48.592;9.634;2023-08-24T06:28:18;22.70;1.00
1602;DHT22;794;48.592;9.634;2023-08-24T06:30:57;23.20;1.00
1602;DHT22;794;48.592;9.634;2023-08-24T06:33:32;23.40;1.00
1602;DHT22;794;48.592;9.634;2023-08-24T06:36:01;23.60;1.00
1602;DHT22;794;48.592;9.634;2023-08-24T06:38:31;24.00;1.00
1602;DHT22;794;48.592;9.634;2023-08-24T06:40:58;24.40;1.00
1602;DHT22;794;48.592;9.634;2023-08-24T06:43:25;24.50;1.00
1602;DHT22;794;48.592;9.634;2023-08-24T06:45:53;24.60;1.00
1602;DHT22;794;48.592;9.634;2023-08-24T06:48:22;24.80;1.00
1602;DHT22;794;48.592;9.634;2023-08-24T06:50:53;24.80;1.00
1602;DHT22;794;48.592;9.634;2023-08-24T06:53:20;24.60;1.00
1602;DHT22;794;48.592;9.634;2023-08-24T06:55:56;24.50;1.00
1602;DHT22;794;48.592;9.634;2023-08-24T06:58:26;24.30;1.00
1602;DHT22;794;48.592;9.634;2023-08-24T07:00:55;22.80;1.00
1602;DHT22;794;48.592;9.634;2023-08-24T07:03:33;24.00;1.00
1602;DHT22;794;48.592;9.634;2023-08-24T07:06:05;23.80;1.00
1602;DHT22;794;48.592;9.634;2023-08-24T07:08:32;23.50;1.00
1602;DHT22;794;48.592;9.634;2023-08-24T07:11:02;23.60;1.00
1602;DHT22;794;48.592;9.634;2023-08-24T07:13:32;23.60;1.00
1602;DHT22;794;48.592;9.634;2023-08-24T07:16:00;24.70;1.00
1602;DHT22;794;48.592;9.634;2023-08-24T07:18:30;23.40;1.00
1602;DHT22;794;48.592;9.634;2023-08-24T07:20:57;23.50;1.00
1602;DHT22;794;48.592;9.634;2023-08-24T07:23:33;23.50;1.00
1602;DHT22;794;48.592;9.634;2023-08-24T07:26:03;23.70;1.00
1602;DHT22;794;48.592;9.634;2023-08-24T07:28:31;23.80;1.00
1602;DHT22;794;48.592;9.634;2023-08-24T07:30:57;24.10;1.00
1602;DHT22;794;48.592;9.634;2023-08-24T07:33:27;24.50;1.00
1602;DHT22;794;48.592;9.634;2023-08-24T07:35:57;24.50;1.00
1602;DHT22;794;48.592;9.634;2023-08-24T07:38:28;24.70;1.00
1602;DHT22;794;48.592;9.634;2023-08-24T07:40:55;25.00;1.00
1602;DHT22;794;48.592;9.634;2023-08-24T07:43:22;25.20;1.00
1602;DHT22;794;48.592;9.634;2023-08-24T07:45:51;25.60;1.00
1602;DHT22;794;48.592;9.634;2023-08-24T07:48:20;26.20;1.00
1602;DHT22;794;48.592;9.634;2023-08-24T07:50:49;27.40;1.00
1602;DHT22;794;48.592;9.634;2023-08-24T07:53:16;29.30;1.00
1602;DHT22;794;48.592;9.634;2023-08-24T07:55:45;30.70;1.00
1602;DHT22;794;48.592;9.634;2023-08-24T07:58:12;31.30;1.00
1602;DHT22;794;48.592;9.634;2023-08-24T08:00:41;32.70;1.00
1602;DHT22;794;48.592;9.634;2023-08-24T08:03:08;33.60;1.00
1602;DHT22;794;48.592;9.634;2023-08-24T08:05:35;32.60;1.00
1602;DHT22;794;48.592;9.634;2023-08-24T08:08:03;30.60;1.00
1602;DHT22;794;48.592;9.634;2023-08-24T08:10:30;30.60;1.00
1602;DHT22;794;48.592;9.634;2023-08-24T08:12:59;32.00;1.00
1602;DHT22;794;48.592;9.634;2023-08-24T08:15:26;33.10;1.00
1602;DHT22;794;48.592;9.634;2023-08-24T08:17:53;33.60;1.00
1602;DHT22;794;48.592;9.634;2023-08-24T08:20:20;35.30;1.00
1602;DHT22;794;48.592;9.634;2023-08-24T08:22:52;36.80;1.00
1602;DHT22;794;48.592;9.634;2023-08-24T08:25:21;36.50;1.00
1602;DHT22;794;48.592;9.634;2023-08-24T08:27:52;35.20;1.00
1602;DHT22;794;48.592;9.634;2023-08-24T08:30:20;37.00;1.00
1602;DHT22;794;48.592;9.634;2023-08-24T08:32:47;38.10;1.00
1602;DHT22;794;48.592;9.634;2023-08-24T08:35:16;38.60;1.00
1602;DHT22;794;48.592;9.634;2023-08-24T08:37:46;37.90;1.00
1602;DHT22;794;48.592;9.634;2023-08-24T08:40:16;37.90;1.00
1602;DHT22;794;48.592;9.634;2023-08-24T08:42:48;38.00;1.00
1602;DHT22;794;48.592;9.634;2023-08-24T08:45:21;38.80;1.00
1602;DHT22;794;48.592;9.634;2023-08-24T08:47:51;40.10;1.00
1602;DHT22;794;48.592;9.634;2023-08-24T08:50:22;40.90;1.00
1602;DHT22;794;48.592;9.634;2023-08-24T08:52:52;38.60;1.00
1602;DHT22;794;48.592;9.634;2023-08-24T08:55:19;37.70;1.00
1602;DHT22;794;48.592;9.634;2023-08-24T08:57:48;36.90;1.00
1602;DHT22;794;48.592;9.634;2023-08-24T09:00:21;34.50;1.00
1602;DHT22;794;48.592;9.634;2023-08-24T09:02:52;34.30;1.00
1602;DHT22;794;48.592;9.634;2023-08-24T09:05:22;34.80;1.00
1602;DHT22;794;48.592;9.634;2023-08-24T09:07:53;34.40;1.00
1602;DHT22;794;48.592;9.634;2023-08-24T09:10:22;35.20;1.00
1602;DHT22;794;48.592;9.634;2023-08-24T09:12:52;34.20;1.00
1602;DHT22;794;48.592;9.634;2023-08-24T09:15:27;33.20;1.00
1602;DHT22;794;48.592;9.634;2023-08-24T09:17:57;34.10;1.00
1602;DHT22;794;48.592;9.634;2023-08-24T09:20:27;33.50;1.00
1602;DHT22;794;48.592;9.634;2023-08-24T09:22:55;34.50;1.00
1602;DHT22;794;48.592;9.634;2023-08-24T09:25:23;36.20;1.00
1602;DHT22;794;48.592;9.634;2023-08-24T09:28:02;36.30;1.00
1602;DHT22;794;48.592;9.634;2023-08-24T09:33:13;35.70;1.00
1602;DHT22;794;48.592;9.634;2023-08-24T09:35:42;35.70;1.00
1602;DHT22;794;48.592;9.634;2023-08-24T09:38:16;35.70;1.00
1602;DHT22;794;48.592;9.634;2023-08-24T09:40:48;37.70;1.00
1602;DHT22;794;48.592;9.634;2023-08-24T09:43:19;35.90;1.00
1602;DHT22;794;48.592;9.634;2023-08-24T09:45:55;35.50;1.00
1602;DHT22;794;48.592;9.634;2023-08-24T09:48:22;35.20;1.00
1602;DHT22;794;48.592;9.634;2023-08-24T09:50:51;35.20;1.00
1602;DHT22;794;48.592;9.634;2023-08-24T09:53:22;34.40;1.00
1602;DHT22;794;48.592;9.634;2023-08-24T09:55:58;34.70;1.00
1602;DHT22;794;48.592;9.634;2023-08-24T09:58:32;33.40;1.00
1602;DHT22;794;48.592;9.634;2023-08-24T10:01:03;35.60;1.00
1602;DHT22;794;48.592;9.634;2023-08-24T10:03:32;34.60;1.00
1602;DHT22;794;48.592;9.634;2023-08-24T10:06:03;34.00;1.00
1602;DHT22;794;48.592;9.634;2023-08-24T10:08:35;34.20;1.00
1602;DHT22;794;48.592;9.634;2023-08-24T10:11:03;34.40;1.00
1602;DHT22;794;48.592;9.634;2023-08-24T10:13:36;34.20;1.00
1602;DHT22;794;48.592;9.634;2023-08-24T10:16:08;33.70;1.00
1602;DHT22;794;48.592;9.634;2023-08-24T10:18:36;32.50;1.00
1602;DHT22;794;48.592;9.634;2023-08-24T10:21:07;34.50;1.00
1602;DHT22;794;48.592;9.634;2023-08-24T10:23:37;35.30;1.00
1602;DHT22;794;48.592;9.634;2023-08-24T10:26:08;35.20;1.00
1602;DHT22;794;48.592;9.634;2023-08-24T10:28:38;35.30;1.00
1602;DHT22;794;48.592;9.634;2023-08-24T10:31:11;34.30;1.00
1602;DHT22;794;48.592;9.634;2023-08-24T10:33:42;33.20;1.00
1602;DHT22;794;48.592;9.634;2023-08-24T10:36:13;33.80;1.00
1602;DHT22;794;48.592;9.634;2023-08-24T10:38:41;33.70;1.00
1602;DHT22;794;48.592;9.634;2023-08-24T10:41:10;33.00;1.00
1602;DHT22;794;48.592;9.634;2023-08-24T10:43:50;32.60;1.00
1602;DHT22;794;48.592;9.634;2023-08-24T10:46:21;32.30;1.00
1602;DHT22;794;48.592;9.634;2023-08-24T10:48:58;32.50;1.00
1602;DHT22;794;48.592;9.634;2023-08-24T10:51:26;32.20;1.00
1602;DHT22;794;48.592;9.634;2023-08-24T10:53:59;32.10;1.00
1602;DHT22;794;48.592;9.634;2023-08-24T10:56:37;31.50;1.00
1602;DHT22;794;48.592;9.634;2023-08-24T10:59:15;31.00;1.00
1602;DHT22;794;48.592;9.634;2023-08-24T11:01:54;31.50;1.00
1602;DHT22;794;48.592;9.634;2023-08-24T11:04:22;30.90;1.00
1602;DHT22;794;48.592;9.634;2023-08-24T11:06:56;31.00;1.00
1602;DHT22;794;48.592;9.634;2023-08-24T11:09:44;30.50;1.00
1602;DHT22;794;48.592;9.634;2023-08-24T11:12:12;31.60;1.00
1602;DHT22;794;48.592;9.634;2023-08-24T11:14:49;30.40;1.00
1602;DHT22;794;48.592;9.634;2023-08-24T11:17:21;30.10;1.00
1602;DHT22;794;48.592;9.634;2023-08-24T11:19:56;30.50;1.00
1602;DHT22;794;48.592;9.634;2023-08-24T11:22:23;30.30;1.00
1602;DHT22;794;48.592;9.634;2023-08-24T11:24:54;30.30;1.00
1602;DHT22;794;48.592;9.634;2023-08-24T11:27:21;30.10;1.00
1602;DHT22;794;48.592;9.634;2023-08-24T11:29:58;30.50;1.00
1602;DHT22;794;48.592;9.634;2023-08-24T11:32:35;30.70;1.00
1602;DHT22;794;48.592;9.634;2023-08-24T11:35:06;31.60;1.00
1602;DHT22;794;48.592;9.634;2023-08-24T11:37:36;30.70;1.00
1602;DHT22;794;48.592;9.634;2023-08-24T11:40:18;30.30;1.00
1602;DHT22;794;48.592;9.634;2023-08-24T11:42:56;30.10;1.00
1602;DHT22;794;48.592;9.634;2023-08-24T11:45:34;30.20;1.00
1602;DHT22;794;48.592;9.634;2023-08-24T11:48:07;30.60;1.00
1602;DHT22;794;48.592;9.634;2023-08-24T11:50:39;30.30;1.00
1602;DHT22;794;48.592;9.634;2023-08-24T11:53:07;30.40;1.00
1602;DHT22;794;48.592;9.634;2023-08-24T11:55:41;30.60;1.00
1602;DHT22;794;48.592;9.634;2023-08-24T11:58:16;30.80;1.00
1602;DHT22;794;48.592;9.634;2023-08-24T12:00:43;30.80;1.00
1602;DHT22;794;48.592;9.634;2023-08-24T12:03:13;30.70;1.00
1602;DHT22;794;48.592;9.634;2023-08-24T12:05:40;30.90;1.00
1602;DHT22;794;48.592;9.634;2023-08-24T12:08:07;31.20;1.00
1602;DHT22;794;48.592;9.634;2023-08-24T12:10:41;31.30;1.00
1602;DHT22;794;48.592;9.634;2023-08-24T12:13:12;31.50;1.00
1602;DHT22;794;48.592;9.634;2023-08-24T12:15:42;31.30;1.00
1602;DHT22;794;48.592;9.634;2023-08-24T12:18:14;30.90;1.00
1602;DHT22;794;48.592;9.634;2023-08-24T12:20:41;30.70;1.00
1602;DHT22;794;48.592;9.634;2023-08-24T12:23:10;30.60;1.00
1602;DHT22;794;48.592;9.634;2023-08-24T12:25:38;30.70;1.00
1602;DHT22;794;48.592;9.634;2023-08-24T12:28:09;30.50;1.00
1602;DHT22;794;48.592;9.634;2023-08-24T12:30:49;30.80;1.00
1602;DHT22;794;48.592;9.634;2023-08-24T12:33:33;30.60;1.00
1602;DHT22;794;48.592;9.634;2023-08-24T12:36:00;31.20;1.00
1602;DHT22;794;48.592;9.634;2023-08-24T12:38:27;30.90;1.00
1602;DHT22;794;48.592;9.634;2023-08-24T12:40:59;31.00;1.00
1602;DHT22;794;48.592;9.634;2023-08-24T12:43:27;29.30;1.00
1602;DHT22;794;48.592;9.634;2023-08-24T12:46:01;30.80;1.00
1602;DHT22;794;48.592;9.634;2023-08-24T12:48:32;30.70;1.00
1602;DHT22;794;48.592;9.634;2023-08-24T12:51:02;30.70;1.00
1602;DHT22;794;48.592;9.634;2023-08-24T12:53:31;31.00;1.00
1602;DHT22;794;48.592;9.634;2023-08-24T12:55:57;31.20;1.00
1602;DHT22;794;48.592;9.634;2023-08-24T12:58:27;31.10;1.00
1602;DHT22;794;48.592;9.634;2023-08-24T13:00:57;31.20;1.00
1602;DHT22;794;48.592;9.634;2023-08-24T13:03:24;31.70;1.00
1602;DHT22;794;48.592;9.634;2023-08-24T13:05:52;31.60;1.00
1602;DHT22;794;48.592;9.634;2023-08-24T13:08:21;31.80;1.00
1602;DHT22;794;48.592;9.634;2023-08-24T13:10:51;32.10;1.00
1602;DHT22;794;48.592;9.634;2023-08-24T13:13:18;32.30;1.00
1602;DHT22;794;48.592;9.634;2023-08-24T13:15:48;32.10;1.00
1602;DHT22;794;48.592;9.634;2023-08-24T13:18:17;32.00;1.00
1602;DHT22;794;48.592;9.634;2023-08-24T13:20:45;32.00;1.00
1602;DHT22;794;48.592;9.634;2023-08-24T13:23:17;32.20;1.00
1602;DHT22;794;48.592;9.634;2023-08-24T13:25:47;32.30;1.00
1602;DHT22;794;48.592;9.634;2023-08-24T13:28:17;32.90;1.00
1602;DHT22;794;48.592;9.634;2023-08-24T13:30:46;32.60;1.00
1602;DHT22;794;48.592;9.634;2023-08-24T13:33:16;32.30;1.00
1602;DHT22;794;48.592;9.634;2023-08-24T13:35:46;33.70;1.00
1602;DHT22;794;48.592;9.634;2023-08-24T13:38:21;32.50;1.00
1602;DHT22;794;48.592;9.634;2023-08-24T13:40:48;32.70;1.00
1602;DHT22;794;48.592;9.634;2023-08-24T13:43:16;32.90;1.00
1602;DHT22;794;48.592;9.634;2023-08-24T13:45:45;33.00;1.00
1602;DHT22;794;48.592;9.634;2023-08-24T13:48:12;33.10;1.00
1602;DHT22;794;48.592;9.634;2023-08-24T13:50:52;33.30;1.00
1602;DHT22;794;48.592;9.634;2023-08-24T13:53:30;33.10;1.00
1602;DHT22;794;48.592;9.634;2023-08-24T13:56:02;33.00;1.00
1602;DHT22;794;48.592;9.634;2023-08-24T14:28:51;32.70;1.00
1602;DHT22;794;48.592;9.634;2023-08-24T14:38:10;32.40;1.00
1602;DHT22;794;48.592;9.634;2023-08-24T14:40:37;32.40;1.00
1602;DHT22;794;48.592;9.634;2023-08-24T14:43:07;32.50;1.00
1602;DHT22;794;48.592;9.634;2023-08-24T14:45:42;32.90;1.00
1602;DHT22;794;48.592;9.634;2023-08-24T14:48:09;32.60;1.00
1602;DHT22;794;48.592;9.634;2023-08-24T14:50:38;32.60;1.00
1602;DHT22;794;48.592;9.634;2023-08-24T14:53:07;32.70;1.00
1602;DHT22;794;48.592;9.634;2023-08-24T14:55:37;33.10;1.00
1602;DHT22;794;48.592;9.634;2023-08-24T14:58:07;32.90;1.00
1602;DHT22;794;48.592;9.634;2023-08-24T15:00:42;32.40;1.00
1602;DHT22;794;48.592;9.634;2023-08-24T15:03:11;32.70;1.00
1602;DHT22;794;48.592;9.634;2023-08-24T15:05:43;33.00;1.00
1602;DHT22;794;48.592;9.634;2023-08-24T15:08:10;33.10;1.00
1602;DHT22;794;48.592;9.634;2023-08-24T15:10:38;33.10;1.00
1602;DHT22;794;48.592;9.634;2023-08-24T15:13:10;33.10;1.00
1602;DHT22;794;48.592;9.634;2023-08-24T15:15:42;32.80;1.00
1602;DHT22;794;48.592;9.634;2023-08-24T15:18:12;33.30;1.00
1602;DHT22;794;48.592;9.634;2023-08-24T15:20:42;32.80;1.00
1602;DHT22;794;48.592;9.634;2023-08-24T15:23:21;32.50;1.00
1602;DHT22;794;48.592;9.634;2023-08-24T15:25:58;32.30;1.00
1602;DHT22;794;48.592;9.634;2023-08-24T15:28:26;32.00;1.00
1602;DHT22;794;48.592;9.634;2023-08-24T15:30:57;31.50;1.00
1602;DHT22;794;48.592;9.634;2023-08-24T15:33:26;31.10;1.00
1602;DHT22;794;48.592;9.634;2023-08-24T15:35:55;30.90;1.00
1602;DHT22;794;48.592;9.634;2023-08-24T15:38:22;30.50;1.00
1602;DHT22;794;48.592;9.634;2023-08-24T15:40:52;30.10;1.00
1602;DHT22;794;48.592;9.634;2023-08-24T15:43:19;29.70;1.00
1602;DHT22;794;48.592;9.634;2023-08-24T15:45:51;29.50;1.00
1602;DHT22;794;48.592;9.634;2023-08-24T15:48:21;29.20;1.00
1602;DHT22;794;48.592;9.634;2023-08-24T15:50:48;29.00;1.00
1602;DHT22;794;48.592;9.634;2023-08-24T15:53:16;28.70;1.00
1602;DHT22;794;48.592;9.634;2023-08-24T15:55:43;28.40;1.00
1602;DHT22;794;48.592;9.634;2023-08-24T15:58:10;28.20;1.00
1602;DHT22;794;48.592;9.634;2023-08-24T16:00:37;27.70;1.00
1602;DHT22;794;48.592;9.634;2023-08-24T16:03:07;27.30;1.00
1602;DHT22;794;48.592;9.634;2023-08-24T16:05:35;27.10;1.00
1602;DHT22;794;48.592;9.634;2023-08-24T16:08:03;26.90;1.00
1602;DHT22;794;48.592;9.634;2023-08-24T16:10:32;26.80;1.00
1602;DHT22;794;48.592;9.634;2023-08-24T16:13:02;26.50;1.00
1602;DHT22;794;48.592;9.634;2023-08-24T16:15:31;26.20;1.00
1602;DHT22;794;48.592;9.634;2023-08-24T16:17:58;26.20;1.00
1602;DHT22;794;48.592;9.634;2023-08-24T16:20:27;26.20;1.00
1602;DHT22;794;48.592;9.634;2023-08-24T16:22:58;26.10;1.00
1602;DHT22;794;48.592;9.634;2023-08-24T16:25:31;25.90;1.00
1602;DHT22;794;48.592;9.634;2023-08-24T16:27:58;25.90;1.00
1602;DHT22;794;48.592;9.634;2023-08-24T16:30:28;25.90;1.00
1602;DHT22;794;48.592;9.634;2023-08-24T16:32:56;26.10;1.00
1602;DHT22;794;48.592;9.634;2023-08-24T16:35:24;26.20;1.00
1602;DHT22;794;48.592;9.634;2023-08-24T16:37:59;26.20;1.00
1602;DHT22;794;48.592;9.634;2023-08-24T16:40:27;25.90;1.00
1602;DHT22;794;48.592;9.634;2023-08-24T16:42:54;26.30;1.00
1602;DHT22;794;48.592;9.634;2023-08-24T16:45:21;25.80;1.00
1602;DHT22;794;48.592;9.634;2023-08-24T16:47:52;26.30;1.00
1602;DHT22;794;48.592;9.634;2023-08-24T16:50:19;26.20;1.00
1602;DHT22;794;48.592;9.634;2023-08-24T16:52:46;26.10;1.00
1602;DHT22;794;48.592;9.634;2023-08-24T16:55:17;26.00;1.00
1602;DHT22;794;48.592;9.634;2023-08-24T16:57:50;25.90;1.00
1602;DHT22;794;48.592;9.634;2023-08-24T17:00:18;25.70;1.00
1602;DHT22;794;48.592;9.634;2023-08-24T17:02:48;25.60;1.00
1602;DHT22;794;48.592;9.634;2023-08-24T17:05:15;25.30;1.00
1602;DHT22;794;48.592;9.634;2023-08-24T17:08:02;25.50;1.00
1602;DHT22;794;48.592;9.634;2023-08-24T17:10:46;25.60;1.00
1602;DHT22;794;48.592;9.634;2023-08-24T17:13:16;25.40;1.00
1602;DHT22;794;48.592;9.634;2023-08-24T17:15:43;25.40;1.00
1602;DHT22;794;48.592;9.634;2023-08-24T17:18:14;25.50;1.00
1602;DHT22;794;48.592;9.634;2023-08-24T17:20:41;25.30;1.00
1602;DHT22;794;48.592;9.634;2023-08-24T17:23:08;25.40;1.00
1602;DHT22;794;48.592;9.634;2023-08-24T17:25:38;25.50;1.00
1602;DHT22;794;48.592;9.634;2023-08-24T17:28:08;25.40;1.00
1602;DHT22;794;48.592;9.634;2023-08-24T17:30:36;25.50;1.00
1602;DHT22;794;48.592;9.634;2023-08-24T17:33:07;25.30;1.00
1602;DHT22;794;48.592;9.634;2023-08-24T17:37:50;25.20;1.00
1602;DHT22;794;48.592;9.634;2023-08-24T17:38:57;24.20;1.00
1602;DHT22;794;48.592;9.634;2023-08-24T17:41:26;25.00;1.00
1602;DHT22;794;48.592;9.634;2023-08-24T17:43:55;25.00;1.00